createdAt,value
2019-03-11T00:04:34.064Z,0.70
2019-03-11T00:14:38.897Z,1.00
2019-03-11T00:24:43.766Z,0.80
2019-03-11T00:34:48.630Z,1.00
2019-03-11T00:44:53.472Z,1.20
2019-03-11T00:54:58.295Z,0.80
2019-03-11T01:05:03.361Z,2.00
2019-03-11T01:15:12.941Z,5.27
2019-03-11T01:25:18.111Z,3.42
2019-03-11T01:35:22.981Z,1.90
2019-03-11T01:45:27.849Z,1.03
2019-03-11T01:55:32.715Z,1.60
2019-03-11T02:05:37.613Z,4.00
2019-03-11T02:15:42.455Z,1.70
2019-03-11T02:25:47.344Z,3.07
2019-03-11T02:35:52.205Z,2.60
2019-03-11T02:45:57.045Z,2.30
2019-03-11T02:56:01.923Z,3.27
2019-03-11T03:06:08.448Z,3.17
2019-03-11T03:16:13.306Z,5.35
2019-03-11T03:26:18.230Z,3.17
2019-03-11T03:36:23.100Z,3.80
2019-03-11T03:46:27.963Z,4.17
2019-03-11T03:56:32.849Z,4.43
2019-03-11T04:06:37.809Z,4.00
2019-03-11T04:16:42.756Z,2.87
2019-03-11T04:26:50.558Z,4.37
2019-03-11T04:36:55.448Z,4.53
2019-03-11T04:47:00.342Z,5.30
2019-03-11T04:57:05.305Z,4.67
2019-03-11T05:07:10.207Z,5.80
2019-03-11T05:17:15.152Z,4.97
2019-03-11T05:27:20.152Z,4.75
2019-03-11T05:37:25.093Z,4.73
2019-03-11T05:47:29.972Z,4.87
2019-03-11T05:57:34.856Z,4.62
2019-03-11T06:07:42.505Z,5.00
2019-03-11T06:17:46.906Z,4.73
2019-03-11T06:27:51.950Z,4.70
2019-03-11T06:37:56.875Z,5.65
2019-03-11T06:48:01.926Z,3.17
2019-03-11T06:58:06.799Z,3.40
2019-03-11T07:08:11.681Z,2.95
2019-03-11T07:18:16.595Z,3.40
2019-03-11T07:28:21.483Z,3.00
2019-03-11T07:38:26.395Z,3.73
2019-03-11T07:48:31.334Z,3.93
2019-03-11T07:58:37.401Z,4.57
2019-03-11T08:08:42.289Z,3.83
2019-03-11T08:18:47.196Z,5.40
2019-03-11T08:28:52.101Z,5.80
2019-03-11T08:38:57.011Z,5.67
2019-03-11T08:49:01.942Z,3.53
2019-03-11T08:59:06.882Z,3.90
2019-03-11T09:09:13.275Z,3.20
2019-03-11T09:19:18.155Z,3.30
2019-03-11T09:29:23.072Z,3.00
2019-03-11T09:39:27.954Z,5.30
2019-03-11T09:49:32.835Z,2.67
2019-03-11T09:59:37.804Z,5.17
2019-03-11T10:09:42.753Z,3.17
2019-03-11T10:19:47.693Z,3.30
2019-03-11T10:29:52.594Z,2.47
2019-03-11T10:39:57.541Z,9.10
2019-03-11T10:50:02.531Z,2.40
2019-03-11T11:00:10.368Z,4.40
2019-03-11T11:10:16.445Z,5.72
2019-03-11T11:20:22.622Z,3.57
2019-03-11T11:30:29.462Z,4.80
2019-03-11T11:40:34.329Z,4.00
2019-03-11T11:50:39.252Z,3.80
2019-03-11T12:00:51.702Z,5.93
2019-03-11T12:10:56.611Z,5.07
2019-03-11T12:21:01.496Z,3.33
2019-03-11T12:31:06.516Z,3.60
2019-03-11T12:41:11.499Z,2.53
2019-03-11T12:51:16.414Z,7.37
2019-03-11T13:01:21.271Z,6.05
2019-03-11T13:11:26.243Z,2.73
2019-03-11T13:21:31.221Z,3.30
2019-03-11T13:31:36.138Z,9.40
2019-03-11T13:41:41.002Z,4.10
2019-03-11T13:51:45.855Z,11.30
2019-03-11T14:01:50.751Z,9.53
2019-03-11T14:11:55.622Z,3.33
2019-03-11T14:22:00.521Z,9.07
2019-03-11T14:32:05.391Z,7.07
2019-03-11T14:42:10.288Z,14.65
2019-03-11T14:52:15.143Z,6.12
2019-03-11T15:02:20.041Z,4.65
2019-03-11T15:12:24.913Z,6.07
2019-03-11T15:22:29.777Z,7.20
2019-03-11T15:32:34.776Z,8.00
2019-03-11T15:42:39.637Z,10.47
2019-03-11T15:52:44.526Z,5.53
2019-03-11T16:02:53.467Z,3.67
2019-03-11T16:12:59.460Z,3.60
2019-03-11T16:23:05.347Z,4.45
2019-03-11T16:33:10.430Z,4.87
2019-03-11T16:43:15.325Z,4.25
2019-03-11T16:53:20.297Z,5.10
2019-03-11T17:03:25.286Z,9.30
2019-03-11T17:13:30.194Z,19.97
2019-03-11T17:23:35.495Z,52.57
2019-03-11T17:33:40.534Z,37.43
2019-03-11T17:43:45.752Z,25.93
2019-03-11T17:53:50.634Z,31.47
2019-03-11T18:03:55.520Z,27.20
2019-03-11T18:14:00.463Z,16.00
2019-03-11T18:24:06.536Z,14.43
2019-03-11T18:34:11.587Z,19.05
2019-03-11T18:44:16.560Z,16.53
2019-03-11T18:54:21.720Z,19.73
2019-03-11T19:04:26.753Z,8.60
2019-03-11T19:14:31.754Z,6.10
2019-03-11T19:24:36.741Z,8.47
2019-03-11T19:34:41.934Z,8.43
2019-03-11T19:44:47.589Z,9.30
2019-03-11T19:54:52.755Z,8.27
2019-03-11T20:04:57.791Z,9.50
2019-03-11T20:15:02.961Z,8.77
2019-03-11T20:25:11.237Z,9.67
2019-03-11T20:35:17.571Z,9.30
2019-03-11T20:45:23.152Z,10.10
2019-03-11T20:55:28.214Z,10.50
2019-03-11T21:05:41.735Z,27.07
2019-03-11T21:15:46.812Z,12.17
2019-03-11T21:25:51.831Z,23.53
2019-03-11T21:35:56.953Z,10.47
2019-03-11T21:46:01.960Z,10.23
2019-03-11T21:56:06.970Z,14.40
2019-03-11T22:06:11.991Z,12.23
2019-03-11T22:16:16.949Z,14.30
2019-03-11T22:26:22.835Z,12.43
2019-03-11T22:36:27.716Z,13.77
2019-03-11T22:46:33.600Z,13.03
2019-03-11T22:56:38.573Z,13.07
2019-03-11T23:06:43.449Z,16.30
2019-03-11T23:16:48.343Z,14.17
2019-03-11T23:26:53.239Z,13.87
2019-03-11T23:36:58.297Z,12.73
2019-03-11T23:47:03.184Z,12.53
2019-03-11T23:57:08.061Z,12.53
